sensor_id;sensor_type;location;lat;lon;timestamp;P1;durP1;ratioP1;P2;durP2;ratioP2
10313;SDS011;5202;49.138;10.090;2024-01-27T00:00:29;6.00;;;3.93;;
10313;SDS011;5202;49.138;10.090;2024-01-27T00:02:59;6.77;;;4.23;;
10313;SDS011;5202;49.138;10.090;2024-01-27T00:05:29;5.53;;;4.20;;
10313;SDS011;5202;49.138;10.090;2024-01-27T00:07:57;7.33;;;3.57;;
10313;SDS011;5202;49.138;10.090;2024-01-27T00:10:26;5.87;;;3.87;;
10313;SDS011;5202;49.138;10.090;2024-01-27T00:12:54;8.63;;;3.80;;
10313;SDS011;5202;49.138;10.090;2024-01-27T00:15:24;4.63;;;3.37;;
10313;SDS011;5202;49.138;10.090;2024-01-27T00:17:52;6.73;;;3.93;;
10313;SDS011;5202;49.138;10.090;2024-01-27T00:20:22;7.93;;;4.20;;
10313;SDS011;5202;49.138;10.090;2024-01-27T00:22:51;6.00;;;3.87;;
10313;SDS011;5202;49.138;10.090;2024-01-27T00:25:19;7.00;;;4.10;;
10313;SDS011;5202;49.138;10.090;2024-01-27T00:27:48;5.23;;;3.60;;
10313;SDS011;5202;49.138;10.090;2024-01-27T00:30:16;3.80;;;3.00;;
10313;SDS011;5202;49.138;10.090;2024-01-27T00:32:45;9.23;;;3.23;;
10313;SDS011;5202;49.138;10.090;2024-01-27T00:35:14;9.53;;;3.73;;
10313;SDS011;5202;49.138;10.090;2024-01-27T00:37:44;6.13;;;3.63;;
10313;SDS011;5202;49.138;10.090;2024-01-27T00:40:12;5.37;;;3.70;;
10313;SDS011;5202;49.138;10.090;2024-01-27T00:42:40;4.70;;;3.50;;
10313;SDS011;5202;49.138;10.090;2024-01-27T00:45:09;3.83;;;3.03;;
10313;SDS011;5202;49.138;10.090;2024-01-27T00:47:38;4.37;;;3.17;;
10313;SDS011;5202;49.138;10.090;2024-01-27T00:50:06;7.30;;;3.43;;
10313;SDS011;5202;49.138;10.090;2024-01-27T00:52:36;5.57;;;3.10;;
10313;SDS011;5202;49.138;10.090;2024-01-27T00:55:06;6.20;;;3.57;;
10313;SDS011;5202;49.138;10.090;2024-01-27T00:57:35;5.60;;;3.50;;
10313;SDS011;5202;49.138;10.090;2024-01-27T01:00:05;9.63;;;3.87;;
10313;SDS011;5202;49.138;10.090;2024-01-27T01:02:35;6.73;;;3.93;;
10313;SDS011;5202;49.138;10.090;2024-01-27T01:05:32;8.53;;;4.07;;
10313;SDS011;5202;49.138;10.090;2024-01-27T01:08:01;9.23;;;3.87;;
10313;SDS011;5202;49.138;10.090;2024-01-27T01:10:31;9.43;;;3.83;;
10313;SDS011;5202;49.138;10.090;2024-01-27T01:12:59;5.03;;;3.40;;
10313;SDS011;5202;49.138;10.090;2024-01-27T01:15:28;5.77;;;3.70;;
10313;SDS011;5202;49.138;10.090;2024-01-27T01:17:57;5.03;;;3.30;;
10313;SDS011;5202;49.138;10.090;2024-01-27T01:20:25;6.87;;;3.77;;
10313;SDS011;5202;49.138;10.090;2024-01-27T01:22:54;7.50;;;3.50;;
10313;SDS011;5202;49.138;10.090;2024-01-27T01:25:22;7.23;;;3.80;;
10313;SDS011;5202;49.138;10.090;2024-01-27T01:27:52;6.87;;;3.63;;
10313;SDS011;5202;49.138;10.090;2024-01-27T01:30:20;8.37;;;3.67;;
10313;SDS011;5202;49.138;10.090;2024-01-27T01:32:49;8.03;;;3.70;;
10313;SDS011;5202;49.138;10.090;2024-01-27T01:35:18;6.17;;;3.67;;
10313;SDS011;5202;49.138;10.090;2024-01-27T01:37:47;4.93;;;3.53;;
10313;SDS011;5202;49.138;10.090;2024-01-27T01:40:16;7.33;;;4.43;;
10313;SDS011;5202;49.138;10.090;2024-01-27T01:42:49;6.37;;;4.03;;
10313;SDS011;5202;49.138;10.090;2024-01-27T01:45:20;7.70;;;3.90;;
10313;SDS011;5202;49.138;10.090;2024-01-27T01:47:48;8.07;;;4.27;;
10313;SDS011;5202;49.138;10.090;2024-01-27T01:50:17;5.30;;;3.27;;
10313;SDS011;5202;49.138;10.090;2024-01-27T01:52:46;5.90;;;3.87;;
10313;SDS011;5202;49.138;10.090;2024-01-27T01:55:16;7.57;;;3.40;;
10313;SDS011;5202;49.138;10.090;2024-01-27T01:57:45;5.97;;;3.27;;
10313;SDS011;5202;49.138;10.090;2024-01-27T02:00:15;8.67;;;3.90;;
10313;SDS011;5202;49.138;10.090;2024-01-27T02:02:46;7.60;;;4.00;;
10313;SDS011;5202;49.138;10.090;2024-01-27T02:05:15;7.17;;;3.40;;
10313;SDS011;5202;49.138;10.090;2024-01-27T02:07:44;6.47;;;3.53;;
10313;SDS011;5202;49.138;10.090;2024-01-27T02:10:13;6.87;;;3.83;;
10313;SDS011;5202;49.138;10.090;2024-01-27T02:12:43;5.20;;;3.20;;
10313;SDS011;5202;49.138;10.090;2024-01-27T02:15:12;6.47;;;3.40;;
10313;SDS011;5202;49.138;10.090;2024-01-27T02:17:41;7.13;;;3.30;;
10313;SDS011;5202;49.138;10.090;2024-01-27T02:20:11;6.37;;;3.80;;
10313;SDS011;5202;49.138;10.090;2024-01-27T02:22:40;5.90;;;3.60;;
10313;SDS011;5202;49.138;10.090;2024-01-27T02:25:09;7.67;;;3.90;;
10313;SDS011;5202;49.138;10.090;2024-01-27T02:27:38;6.53;;;3.63;;
10313;SDS011;5202;49.138;10.090;2024-01-27T02:30:07;9.77;;;4.03;;
10313;SDS011;5202;49.138;10.090;2024-01-27T02:32:36;7.17;;;4.07;;
10313;SDS011;5202;49.138;10.090;2024-01-27T02:35:05;6.27;;;3.23;;
10313;SDS011;5202;49.138;10.090;2024-01-27T02:37:34;6.80;;;3.60;;
10313;SDS011;5202;49.138;10.090;2024-01-27T02:40:03;6.60;;;3.30;;
10313;SDS011;5202;49.138;10.090;2024-01-27T02:42:35;7.07;;;3.50;;
10313;SDS011;5202;49.138;10.090;2024-01-27T02:45:04;7.50;;;3.73;;
10313;SDS011;5202;49.138;10.090;2024-01-27T02:47:33;7.33;;;3.60;;
10313;SDS011;5202;49.138;10.090;2024-01-27T02:50:02;4.30;;;3.20;;
10313;SDS011;5202;49.138;10.090;2024-01-27T02:52:33;5.93;;;3.20;;
10313;SDS011;5202;49.138;10.090;2024-01-27T02:55:01;4.27;;;3.00;;
10313;SDS011;5202;49.138;10.090;2024-01-27T02:57:30;7.40;;;3.30;;
10313;SDS011;5202;49.138;10.090;2024-01-27T03:00:00;7.60;;;3.50;;
10313;SDS011;5202;49.138;10.090;2024-01-27T03:02:29;5.17;;;3.20;;
10313;SDS011;5202;49.138;10.090;2024-01-27T03:04:58;5.47;;;3.23;;
10313;SDS011;5202;49.138;10.090;2024-01-27T03:07:28;8.13;;;3.20;;
10313;SDS011;5202;49.138;10.090;2024-01-27T03:09:56;6.30;;;3.33;;
10313;SDS011;5202;49.138;10.090;2024-01-27T03:12:25;6.23;;;3.13;;
10313;SDS011;5202;49.138;10.090;2024-01-27T03:14:53;7.60;;;3.03;;
10313;SDS011;5202;49.138;10.090;2024-01-27T03:17:23;4.27;;;2.90;;
10313;SDS011;5202;49.138;10.090;2024-01-27T03:19:51;5.07;;;3.10;;
10313;SDS011;5202;49.138;10.090;2024-01-27T03:22:23;5.13;;;3.37;;
10313;SDS011;5202;49.138;10.090;2024-01-27T03:24:52;5.00;;;3.07;;
10313;SDS011;5202;49.138;10.090;2024-01-27T03:27:21;7.97;;;3.20;;
10313;SDS011;5202;49.138;10.090;2024-01-27T03:29:50;6.60;;;3.63;;
10313;SDS011;5202;49.138;10.090;2024-01-27T03:32:18;9.90;;;3.50;;
10313;SDS011;5202;49.138;10.090;2024-01-27T03:34:48;6.30;;;4.03;;
10313;SDS011;5202;49.138;10.090;2024-01-27T03:37:17;6.83;;;4.00;;
10313;SDS011;5202;49.138;10.090;2024-01-27T03:39:45;11.00;;;4.03;;
10313;SDS011;5202;49.138;10.090;2024-01-27T03:42:14;8.07;;;3.80;;
10313;SDS011;5202;49.138;10.090;2024-01-27T03:44:42;6.60;;;3.50;;
10313;SDS011;5202;49.138;10.090;2024-01-27T03:47:11;8.80;;;4.43;;
10313;SDS011;5202;49.138;10.090;2024-01-27T03:49:39;5.60;;;3.83;;
10313;SDS011;5202;49.138;10.090;2024-01-27T03:52:09;6.60;;;3.97;;
10313;SDS011;5202;49.138;10.090;2024-01-27T03:54:37;7.20;;;3.93;;
10313;SDS011;5202;49.138;10.090;2024-01-27T03:57:06;7.37;;;3.70;;
10313;SDS011;5202;49.138;10.090;2024-01-27T03:59:34;6.20;;;3.60;;
10313;SDS011;5202;49.138;10.090;2024-01-27T04:02:03;7.13;;;3.93;;
10313;SDS011;5202;49.138;10.090;2024-01-27T04:04:32;6.20;;;3.07;;
10313;SDS011;5202;49.138;10.090;2024-01-27T04:07:00;5.27;;;3.37;;
10313;SDS011;5202;49.138;10.090;2024-01-27T04:09:30;7.63;;;3.43;;
10313;SDS011;5202;49.138;10.090;2024-01-27T04:11:59;5.93;;;3.40;;
10313;SDS011;5202;49.138;10.090;2024-01-27T04:14:27;5.17;;;3.30;;
10313;SDS011;5202;49.138;10.090;2024-01-27T04:16:56;5.87;;;3.97;;
10313;SDS011;5202;49.138;10.090;2024-01-27T04:19:24;10.73;;;3.97;;
10313;SDS011;5202;49.138;10.090;2024-01-27T04:21:53;5.63;;;3.43;;
10313;SDS011;5202;49.138;10.090;2024-01-27T04:24:21;7.30;;;3.57;;
10313;SDS011;5202;49.138;10.090;2024-01-27T04:26:51;9.10;;;4.30;;
10313;SDS011;5202;49.138;10.090;2024-01-27T04:29:20;5.87;;;4.27;;
10313;SDS011;5202;49.138;10.090;2024-01-27T04:31:48;7.40;;;4.37;;
10313;SDS011;5202;49.138;10.090;2024-01-27T04:34:17;6.20;;;4.00;;
10313;SDS011;5202;49.138;10.090;2024-01-27T04:36:45;8.10;;;3.53;;
10313;SDS011;5202;49.138;10.090;2024-01-27T04:39:14;4.87;;;2.77;;
10313;SDS011;5202;49.138;10.090;2024-01-27T04:41:42;3.63;;;2.90;;
10313;SDS011;5202;49.138;10.090;2024-01-27T04:44:12;4.83;;;2.63;;
10313;SDS011;5202;49.138;10.090;2024-01-27T04:46:41;5.10;;;2.70;;
10313;SDS011;5202;49.138;10.090;2024-01-27T04:49:09;5.97;;;3.10;;
10313;SDS011;5202;49.138;10.090;2024-01-27T04:51:38;4.73;;;2.97;;
10313;SDS011;5202;49.138;10.090;2024-01-27T04:54:06;6.03;;;2.53;;
10313;SDS011;5202;49.138;10.090;2024-01-27T04:56:35;5.70;;;3.10;;
10313;SDS011;5202;49.138;10.090;2024-01-27T04:59:04;4.60;;;3.10;;
10313;SDS011;5202;49.138;10.090;2024-01-27T05:01:34;7.10;;;3.40;;
10313;SDS011;5202;49.138;10.090;2024-01-27T05:04:02;7.53;;;3.30;;
10313;SDS011;5202;49.138;10.090;2024-01-27T05:06:43;5.67;;;3.43;;
10313;SDS011;5202;49.138;10.090;2024-01-27T05:09:12;5.90;;;3.30;;
10313;SDS011;5202;49.138;10.090;2024-01-27T05:11:41;6.47;;;3.70;;
10313;SDS011;5202;49.138;10.090;2024-01-27T05:14:12;7.47;;;3.87;;
10313;SDS011;5202;49.138;10.090;2024-01-27T05:16:42;5.10;;;3.60;;
10313;SDS011;5202;49.138;10.090;2024-01-27T05:19:10;7.37;;;3.50;;
10313;SDS011;5202;49.138;10.090;2024-01-27T05:21:39;4.00;;;3.17;;
10313;SDS011;5202;49.138;10.090;2024-01-27T05:24:07;8.77;;;3.27;;
10313;SDS011;5202;49.138;10.090;2024-01-27T05:26:35;7.23;;;3.63;;
10313;SDS011;5202;49.138;10.090;2024-01-27T05:29:04;5.97;;;3.10;;
10313;SDS011;5202;49.138;10.090;2024-01-27T05:31:32;5.47;;;3.43;;
10313;SDS011;5202;49.138;10.090;2024-01-27T05:34:02;10.43;;;4.27;;
10313;SDS011;5202;49.138;10.090;2024-01-27T05:36:32;6.07;;;3.50;;
10313;SDS011;5202;49.138;10.090;2024-01-27T05:39:00;6.37;;;3.33;;
10313;SDS011;5202;49.138;10.090;2024-01-27T05:41:30;6.67;;;3.40;;
10313;SDS011;5202;49.138;10.090;2024-01-27T05:43:59;7.90;;;3.33;;
10313;SDS011;5202;49.138;10.090;2024-01-27T05:46:27;6.60;;;3.43;;
10313;SDS011;5202;49.138;10.090;2024-01-27T05:48:56;6.87;;;3.50;;
10313;SDS011;5202;49.138;10.090;2024-01-27T05:51:31;7.13;;;3.40;;
10313;SDS011;5202;49.138;10.090;2024-01-27T05:54:00;7.90;;;3.70;;
10313;SDS011;5202;49.138;10.090;2024-01-27T05:56:29;6.50;;;3.67;;
10313;SDS011;5202;49.138;10.090;2024-01-27T05:58:57;6.13;;;3.97;;
10313;SDS011;5202;49.138;10.090;2024-01-27T06:01:25;5.60;;;3.40;;
10313;SDS011;5202;49.138;10.090;2024-01-27T06:03:54;6.50;;;3.40;;
10313;SDS011;5202;49.138;10.090;2024-01-27T06:06:23;5.87;;;3.77;;
10313;SDS011;5202;49.138;10.090;2024-01-27T06:08:52;6.17;;;3.40;;
10313;SDS011;5202;49.138;10.090;2024-01-27T06:11:24;9.03;;;3.63;;
10313;SDS011;5202;49.138;10.090;2024-01-27T06:13:52;5.17;;;3.30;;
10313;SDS011;5202;49.138;10.090;2024-01-27T06:16:21;8.90;;;3.37;;
10313;SDS011;5202;49.138;10.090;2024-01-27T06:18:50;7.23;;;3.30;;
10313;SDS011;5202;49.138;10.090;2024-01-27T06:21:20;5.93;;;3.27;;
10313;SDS011;5202;49.138;10.090;2024-01-27T06:23:49;10.57;;;3.17;;
10313;SDS011;5202;49.138;10.090;2024-01-27T06:26:18;7.23;;;3.57;;
10313;SDS011;5202;49.138;10.090;2024-01-27T06:28:48;4.73;;;3.30;;
10313;SDS011;5202;49.138;10.090;2024-01-27T06:31:16;5.20;;;3.23;;
10313;SDS011;5202;49.138;10.090;2024-01-27T06:33:45;5.57;;;3.40;;
10313;SDS011;5202;49.138;10.090;2024-01-27T06:36:14;7.40;;;3.67;;
10313;SDS011;5202;49.138;10.090;2024-01-27T06:38:42;9.43;;;3.40;;
10313;SDS011;5202;49.138;10.090;2024-01-27T06:41:11;7.73;;;3.63;;
10313;SDS011;5202;49.138;10.090;2024-01-27T06:43:41;7.50;;;3.60;;
10313;SDS011;5202;49.138;10.090;2024-01-27T06:46:10;6.00;;;3.67;;
10313;SDS011;5202;49.138;10.090;2024-01-27T06:48:38;7.77;;;4.07;;
10313;SDS011;5202;49.138;10.090;2024-01-27T06:51:07;6.33;;;3.80;;
10313;SDS011;5202;49.138;10.090;2024-01-27T06:53:35;6.53;;;3.90;;
10313;SDS011;5202;49.138;10.090;2024-01-27T06:56:04;6.37;;;4.10;;
10313;SDS011;5202;49.138;10.090;2024-01-27T06:58:33;7.00;;;3.87;;
10313;SDS011;5202;49.138;10.090;2024-01-27T07:01:04;7.50;;;4.10;;
10313;SDS011;5202;49.138;10.090;2024-01-27T07:03:36;9.13;;;5.27;;
10313;SDS011;5202;49.138;10.090;2024-01-27T07:06:07;8.60;;;4.93;;
10313;SDS011;5202;49.138;10.090;2024-01-27T07:08:36;10.10;;;5.37;;
10313;SDS011;5202;49.138;10.090;2024-01-27T07:11:05;12.17;;;5.87;;
10313;SDS011;5202;49.138;10.090;2024-01-27T07:13:33;13.30;;;5.83;;
10313;SDS011;5202;49.138;10.090;2024-01-27T07:16:02;9.70;;;6.53;;
10313;SDS011;5202;49.138;10.090;2024-01-27T07:18:33;25.93;;;16.73;;
10313;SDS011;5202;49.138;10.090;2024-01-27T07:21:02;20.60;;;11.70;;
10313;SDS011;5202;49.138;10.090;2024-01-27T07:23:35;15.57;;;9.33;;
10313;SDS011;5202;49.138;10.090;2024-01-27T07:26:03;18.40;;;11.23;;
10313;SDS011;5202;49.138;10.090;2024-01-27T07:28:32;22.47;;;11.40;;
10313;SDS011;5202;49.138;10.090;2024-01-27T07:31:00;17.53;;;8.53;;
10313;SDS011;5202;49.138;10.090;2024-01-27T07:33:30;10.90;;;7.07;;
10313;SDS011;5202;49.138;10.090;2024-01-27T07:35:59;13.17;;;6.33;;
10313;SDS011;5202;49.138;10.090;2024-01-27T07:38:28;8.63;;;5.57;;
10313;SDS011;5202;49.138;10.090;2024-01-27T07:40:56;8.57;;;5.03;;
10313;SDS011;5202;49.138;10.090;2024-01-27T07:43:25;7.20;;;4.77;;
10313;SDS011;5202;49.138;10.090;2024-01-27T07:45:54;10.23;;;6.03;;
10313;SDS011;5202;49.138;10.090;2024-01-27T07:48:22;9.90;;;6.90;;
10313;SDS011;5202;49.138;10.090;2024-01-27T07:50:53;12.07;;;7.37;;
10313;SDS011;5202;49.138;10.090;2024-01-27T07:53:24;8.87;;;6.30;;
10313;SDS011;5202;49.138;10.090;2024-01-27T07:55:53;11.77;;;7.20;;
10313;SDS011;5202;49.138;10.090;2024-01-27T07:58:22;11.80;;;7.37;;
10313;SDS011;5202;49.138;10.090;2024-01-27T08:00:51;10.90;;;6.97;;
10313;SDS011;5202;49.138;10.090;2024-01-27T08:03:19;12.30;;;7.80;;
10313;SDS011;5202;49.138;10.090;2024-01-27T08:05:48;12.23;;;7.00;;
10313;SDS011;5202;49.138;10.090;2024-01-27T08:08:18;14.90;;;8.67;;
10313;SDS011;5202;49.138;10.090;2024-01-27T08:10:46;12.73;;;7.83;;
10313;SDS011;5202;49.138;10.090;2024-01-27T08:13:14;13.70;;;7.60;;
10313;SDS011;5202;49.138;10.090;2024-01-27T08:15:43;9.13;;;6.37;;
10313;SDS011;5202;49.138;10.090;2024-01-27T08:18:12;11.23;;;6.03;;
10313;SDS011;5202;49.138;10.090;2024-01-27T08:20:40;13.40;;;7.23;;
10313;SDS011;5202;49.138;10.090;2024-01-27T08:23:09;10.87;;;7.27;;
10313;SDS011;5202;49.138;10.090;2024-01-27T08:25:40;10.00;;;6.60;;
10313;SDS011;5202;49.138;10.090;2024-01-27T08:28:11;14.83;;;6.87;;
10313;SDS011;5202;49.138;10.090;2024-01-27T08:30:39;13.30;;;6.87;;
10313;SDS011;5202;49.138;10.090;2024-01-27T08:33:08;10.77;;;6.83;;
10313;SDS011;5202;49.138;10.090;2024-01-27T08:35:37;13.67;;;6.63;;
10313;SDS011;5202;49.138;10.090;2024-01-27T08:38:05;11.87;;;7.33;;
10313;SDS011;5202;49.138;10.090;2024-01-27T08:40:36;13.83;;;7.43;;
10313;SDS011;5202;49.138;10.090;2024-01-27T08:43:05;12.77;;;7.50;;
10313;SDS011;5202;49.138;10.090;2024-01-27T08:45:34;12.50;;;8.57;;
10313;SDS011;5202;49.138;10.090;2024-01-27T08:48:03;15.27;;;8.33;;
10313;SDS011;5202;49.138;10.090;2024-01-27T08:50:32;14.73;;;7.73;;
10313;SDS011;5202;49.138;10.090;2024-01-27T08:53:01;12.20;;;6.87;;
10313;SDS011;5202;49.138;10.090;2024-01-27T08:55:30;12.87;;;7.80;;
10313;SDS011;5202;49.138;10.090;2024-01-27T08:57:58;13.57;;;7.83;;
10313;SDS011;5202;49.138;10.090;2024-01-27T09:00:28;17.30;;;9.63;;
10313;SDS011;5202;49.138;10.090;2024-01-27T09:02:57;17.13;;;9.63;;
10313;SDS011;5202;49.138;10.090;2024-01-27T09:05:30;13.63;;;8.93;;
10313;SDS011;5202;49.138;10.090;2024-01-27T09:08:13;16.83;;;9.23;;
10313;SDS011;5202;49.138;10.090;2024-01-27T09:10:42;19.83;;;9.03;;
10313;SDS011;5202;49.138;10.090;2024-01-27T09:13:10;15.27;;;8.87;;
10313;SDS011;5202;49.138;10.090;2024-01-27T09:15:40;12.20;;;8.17;;
10313;SDS011;5202;49.138;10.090;2024-01-27T09:18:09;11.97;;;7.63;;
10313;SDS011;5202;49.138;10.090;2024-01-27T09:20:37;13.17;;;7.37;;
10313;SDS011;5202;49.138;10.090;2024-01-27T09:23:06;12.73;;;6.73;;
10313;SDS011;5202;49.138;10.090;2024-01-27T09:25:34;13.73;;;6.90;;
10313;SDS011;5202;49.138;10.090;2024-01-27T09:28:03;10.10;;;6.40;;
10313;SDS011;5202;49.138;10.090;2024-01-27T09:30:32;12.80;;;6.27;;
10313;SDS011;5202;49.138;10.090;2024-01-27T09:33:06;9.90;;;6.30;;
10313;SDS011;5202;49.138;10.090;2024-01-27T09:35:35;9.90;;;5.63;;
10313;SDS011;5202;49.138;10.090;2024-01-27T09:38:03;11.80;;;5.90;;
10313;SDS011;5202;49.138;10.090;2024-01-27T09:40:34;11.63;;;5.93;;
10313;SDS011;5202;49.138;10.090;2024-01-27T09:43:03;10.77;;;5.53;;
10313;SDS011;5202;49.138;10.090;2024-01-27T09:45:31;9.40;;;5.40;;
10313;SDS011;5202;49.138;10.090;2024-01-27T09:48:00;11.60;;;5.43;;
10313;SDS011;5202;49.138;10.090;2024-01-27T09:50:33;10.07;;;5.07;;
10313;SDS011;5202;49.138;10.090;2024-01-27T09:53:02;8.33;;;5.33;;
10313;SDS011;5202;49.138;10.090;2024-01-27T09:55:34;10.77;;;5.17;;
10313;SDS011;5202;49.138;10.090;2024-01-27T09:58:03;10.87;;;4.90;;
10313;SDS011;5202;49.138;10.090;2024-01-27T10:00:33;11.67;;;5.10;;
10313;SDS011;5202;49.138;10.090;2024-01-27T10:03:03;9.13;;;4.80;;
10313;SDS011;5202;49.138;10.090;2024-01-27T10:05:35;11.17;;;5.13;;
10313;SDS011;5202;49.138;10.090;2024-01-27T10:08:05;12.30;;;4.87;;
10313;SDS011;5202;49.138;10.090;2024-01-27T10:10:35;7.53;;;3.93;;
10313;SDS011;5202;49.138;10.090;2024-01-27T10:13:03;8.77;;;4.80;;
10313;SDS011;5202;49.138;10.090;2024-01-27T10:15:32;12.27;;;4.80;;
10313;SDS011;5202;49.138;10.090;2024-01-27T10:18:04;7.87;;;4.27;;
10313;SDS011;5202;49.138;10.090;2024-01-27T10:20:35;9.87;;;4.77;;
10313;SDS011;5202;49.138;10.090;2024-01-27T10:23:11;10.17;;;4.53;;
10313;SDS011;5202;49.138;10.090;2024-01-27T10:25:40;10.93;;;4.60;;
10313;SDS011;5202;49.138;10.090;2024-01-27T10:28:09;11.50;;;5.03;;
10313;SDS011;5202;49.138;10.090;2024-01-27T10:30:37;11.53;;;4.53;;
10313;SDS011;5202;49.138;10.090;2024-01-27T10:33:07;9.57;;;4.03;;
10313;SDS011;5202;49.138;10.090;2024-01-27T10:35:38;11.57;;;4.80;;
10313;SDS011;5202;49.138;10.090;2024-01-27T10:38:07;10.47;;;5.50;;
10313;SDS011;5202;49.138;10.090;2024-01-27T10:40:35;10.93;;;5.07;;
10313;SDS011;5202;49.138;10.090;2024-01-27T10:43:05;9.63;;;3.90;;
10313;SDS011;5202;49.138;10.090;2024-01-27T10:45:35;12.27;;;4.47;;
10313;SDS011;5202;49.138;10.090;2024-01-27T10:48:06;12.37;;;3.40;;
10313;SDS011;5202;49.138;10.090;2024-01-27T10:50:39;11.77;;;4.27;;
10313;SDS011;5202;49.138;10.090;2024-01-27T10:53:16;9.97;;;4.60;;
10313;SDS011;5202;49.138;10.090;2024-01-27T10:55:52;7.77;;;4.47;;
10313;SDS011;5202;49.138;10.090;2024-01-27T10:58:22;9.07;;;4.27;;
10313;SDS011;5202;49.138;10.090;2024-01-27T11:00:52;5.03;;;3.60;;
10313;SDS011;5202;49.138;10.090;2024-01-27T11:03:24;8.97;;;4.30;;
10313;SDS011;5202;49.138;10.090;2024-01-27T11:06:03;15.07;;;4.53;;
10313;SDS011;5202;49.138;10.090;2024-01-27T11:08:33;14.47;;;4.47;;
10313;SDS011;5202;49.138;10.090;2024-01-27T11:11:05;12.90;;;4.57;;
10313;SDS011;5202;49.138;10.090;2024-01-27T11:13:34;10.17;;;4.57;;
10313;SDS011;5202;49.138;10.090;2024-01-27T11:16:04;12.10;;;4.40;;
10313;SDS011;5202;49.138;10.090;2024-01-27T11:18:34;9.43;;;4.43;;
10313;SDS011;5202;49.138;10.090;2024-01-27T11:21:04;15.63;;;4.37;;
10313;SDS011;5202;49.138;10.090;2024-01-27T11:23:33;8.63;;;3.87;;
10313;SDS011;5202;49.138;10.090;2024-01-27T11:26:03;10.23;;;3.23;;
10313;SDS011;5202;49.138;10.090;2024-01-27T11:28:33;7.87;;;3.83;;
10313;SDS011;5202;49.138;10.090;2024-01-27T11:31:05;9.73;;;3.20;;
10313;SDS011;5202;49.138;10.090;2024-01-27T11:33:40;4.97;;;2.87;;
10313;SDS011;5202;49.138;10.090;2024-01-27T11:36:19;9.87;;;2.77;;
10313;SDS011;5202;49.138;10.090;2024-01-27T11:38:51;7.83;;;2.47;;
10313;SDS011;5202;49.138;10.090;2024-01-27T11:41:24;11.90;;;2.70;;
10313;SDS011;5202;49.138;10.090;2024-01-27T11:43:54;11.20;;;2.50;;
10313;SDS011;5202;49.138;10.090;2024-01-27T11:46:27;14.60;;;3.17;;
10313;SDS011;5202;49.138;10.090;2024-01-27T11:48:56;6.80;;;2.80;;
10313;SDS011;5202;49.138;10.090;2024-01-27T11:51:26;10.13;;;3.10;;
10313;SDS011;5202;49.138;10.090;2024-01-27T11:53:55;7.67;;;2.87;;
10313;SDS011;5202;49.138;10.090;2024-01-27T11:56:23;5.77;;;3.10;;
10313;SDS011;5202;49.138;10.090;2024-01-27T11:58:52;8.80;;;3.20;;
10313;SDS011;5202;49.138;10.090;2024-01-27T12:01:21;10.43;;;3.10;;
10313;SDS011;5202;49.138;10.090;2024-01-27T12:03:49;10.37;;;3.20;;
10313;SDS011;5202;49.138;10.090;2024-01-27T12:06:18;5.53;;;2.63;;
10313;SDS011;5202;49.138;10.090;2024-01-27T12:08:48;12.93;;;3.50;;
10313;SDS011;5202;49.138;10.090;2024-01-27T12:11:22;7.80;;;3.30;;
10313;SDS011;5202;49.138;10.090;2024-01-27T12:13:54;9.63;;;3.40;;
10313;SDS011;5202;49.138;10.090;2024-01-27T12:16:23;6.83;;;2.73;;
10313;SDS011;5202;49.138;10.090;2024-01-27T12:18:52;7.93;;;2.77;;
10313;SDS011;5202;49.138;10.090;2024-01-27T12:21:21;5.00;;;2.73;;
10313;SDS011;5202;49.138;10.090;2024-01-27T12:23:53;9.17;;;2.77;;
10313;SDS011;5202;49.138;10.090;2024-01-27T12:26:23;5.00;;;2.50;;
10313;SDS011;5202;49.138;10.090;2024-01-27T12:28:54;7.83;;;2.73;;
10313;SDS011;5202;49.138;10.090;2024-01-27T12:31:24;5.53;;;2.50;;
10313;SDS011;5202;49.138;10.090;2024-01-27T12:33:55;8.50;;;2.73;;
10313;SDS011;5202;49.138;10.090;2024-01-27T12:36:26;11.97;;;3.03;;
10313;SDS011;5202;49.138;10.090;2024-01-27T12:38:57;12.43;;;3.10;;
10313;SDS011;5202;49.138;10.090;2024-01-27T12:41:27;10.43;;;2.83;;
10313;SDS011;5202;49.138;10.090;2024-01-27T12:43:56;6.77;;;2.47;;
10313;SDS011;5202;49.138;10.090;2024-01-27T12:46:25;7.27;;;2.70;;
10313;SDS011;5202;49.138;10.090;2024-01-27T12:48:54;9.27;;;2.67;;
10313;SDS011;5202;49.138;10.090;2024-01-27T12:51:23;7.37;;;2.50;;
10313;SDS011;5202;49.138;10.090;2024-01-27T12:53:52;7.03;;;2.60;;
10313;SDS011;5202;49.138;10.090;2024-01-27T12:56:22;8.53;;;2.60;;
10313;SDS011;5202;49.138;10.090;2024-01-27T12:58:51;6.53;;;2.80;;
10313;SDS011;5202;49.138;10.090;2024-01-27T13:01:20;5.87;;;2.30;;
10313;SDS011;5202;49.138;10.090;2024-01-27T13:03:51;6.63;;;2.00;;
10313;SDS011;5202;49.138;10.090;2024-01-27T13:06:23;8.57;;;2.77;;
10313;SDS011;5202;49.138;10.090;2024-01-27T13:08:54;7.87;;;2.27;;
10313;SDS011;5202;49.138;10.090;2024-01-27T13:11:24;6.60;;;2.03;;
10313;SDS011;5202;49.138;10.090;2024-01-27T13:13:52;5.97;;;2.40;;
10313;SDS011;5202;49.138;10.090;2024-01-27T13:16:21;6.70;;;2.40;;
10313;SDS011;5202;49.138;10.090;2024-01-27T13:18:51;7.40;;;2.80;;
10313;SDS011;5202;49.138;10.090;2024-01-27T13:21:19;6.53;;;2.17;;
10313;SDS011;5202;49.138;10.090;2024-01-27T13:23:48;7.90;;;2.63;;
10313;SDS011;5202;49.138;10.090;2024-01-27T13:26:18;4.20;;;2.10;;
10313;SDS011;5202;49.138;10.090;2024-01-27T13:28:52;4.70;;;2.23;;
10313;SDS011;5202;49.138;10.090;2024-01-27T13:31:20;6.73;;;2.80;;
10313;SDS011;5202;49.138;10.090;2024-01-27T13:33:49;6.67;;;2.60;;
10313;SDS011;5202;49.138;10.090;2024-01-27T13:36:17;7.40;;;2.03;;
10313;SDS011;5202;49.138;10.090;2024-01-27T13:38:46;5.53;;;2.20;;
10313;SDS011;5202;49.138;10.090;2024-01-27T13:41:14;8.37;;;2.43;;
10313;SDS011;5202;49.138;10.090;2024-01-27T13:43:43;7.03;;;2.17;;
10313;SDS011;5202;49.138;10.090;2024-01-27T13:46:12;4.97;;;1.90;;
10313;SDS011;5202;49.138;10.090;2024-01-27T13:48:41;5.97;;;2.47;;
10313;SDS011;5202;49.138;10.090;2024-01-27T13:51:11;5.97;;;2.30;;
10313;SDS011;5202;49.138;10.090;2024-01-27T13:53:39;10.23;;;2.40;;
10313;SDS011;5202;49.138;10.090;2024-01-27T13:56:13;7.93;;;2.20;;
10313;SDS011;5202;49.138;10.090;2024-01-27T13:58:42;5.70;;;2.10;;
10313;SDS011;5202;49.138;10.090;2024-01-27T14:01:11;4.20;;;1.67;;
10313;SDS011;5202;49.138;10.090;2024-01-27T14:03:40;5.57;;;2.15;;
10313;SDS011;5202;49.138;10.090;2024-01-27T14:06:09;6.90;;;2.50;;
10313;SDS011;5202;49.138;10.090;2024-01-27T14:08:40;7.88;;;2.38;;
10313;SDS011;5202;49.138;10.090;2024-01-27T14:11:09;7.20;;;2.05;;
10313;SDS011;5202;49.138;10.090;2024-01-27T14:13:37;6.55;;;2.35;;
10313;SDS011;5202;49.138;10.090;2024-01-27T14:16:06;13.00;;;3.05;;
10313;SDS011;5202;49.138;10.090;2024-01-27T14:18:36;5.95;;;2.20;;
10313;SDS011;5202;49.138;10.090;2024-01-27T14:21:04;5.53;;;2.20;;
10313;SDS011;5202;49.138;10.090;2024-01-27T14:23:33;7.18;;;2.22;;
10313;SDS011;5202;49.138;10.090;2024-01-27T14:26:02;5.53;;;2.10;;
10313;SDS011;5202;49.138;10.090;2024-01-27T14:28:30;6.72;;;2.28;;
10313;SDS011;5202;49.138;10.090;2024-01-27T14:30:59;5.22;;;2.17;;
10313;SDS011;5202;49.138;10.090;2024-01-27T14:33:27;7.05;;;2.55;;
10313;SDS011;5202;49.138;10.090;2024-01-27T14:35:58;5.13;;;2.00;;
10313;SDS011;5202;49.138;10.090;2024-01-27T14:38:27;7.28;;;2.00;;
10313;SDS011;5202;49.138;10.090;2024-01-27T14:40:56;3.63;;;1.98;;
10313;SDS011;5202;49.138;10.090;2024-01-27T14:43:25;5.32;;;1.60;;
10313;SDS011;5202;49.138;10.090;2024-01-27T14:45:54;8.13;;;1.90;;
10313;SDS011;5202;49.138;10.090;2024-01-27T14:48:22;6.40;;;2.03;;
10313;SDS011;5202;49.138;10.090;2024-01-27T14:50:53;5.20;;;1.92;;
10313;SDS011;5202;49.138;10.090;2024-01-27T14:53:27;6.07;;;1.88;;
10313;SDS011;5202;49.138;10.090;2024-01-27T14:55:56;5.95;;;2.08;;